Portada
METAR-TAF:

METAR-TAF

Aeroports :

Pipestone Municipal Airport

Pipestone, Minnesota, Estats Units d'Amèrica

latitud: 43-59N, longitud: 096-19W, altitud: 529 m

Observació

L'informe es va fer fa 18 minuts, a les 19:55 UTC
Vent 8 kt del Sud-Oest
Temperatura -4°C
Humitat 86%
Pressió 1026 hPa
Visibilitat: 16.1 km
Núvols disperses a una alçada de 1100 ft

METAR: KPQN 061955Z AUTO 22008KT 10SM SCT011 M04/M06 A3030 RMK AO2

Hora: 14:13 (20:13 UTC)


TAF: manca

Observacions i pronòstics meteorològics de més de 4000 aeroports (METAR i TAF).

Les estacions disponibles són els punts grocs i vermells al mapa.

Posi el ratolí al punt desitjat per veure el nom de l'estació.

Feu clic per veure les observacions i els pronòstics meteorològics.

Per canviar el mapa: feu clic els botons verds amb una creu de color negre per apropar; al botó verd amb un guió per allunyar la imatge; o en les fletxes verdes per a mapes adjacents.


METAR-TAF: